Time;durP1;ratioP1;P1;durP2;ratioP2;P2;SDS_P1;SDS_P2;PMS_P1;PMS_P2;Temp;Humidity;BMP_temperature;BMP_pressure;BME280_temperature;BME280_humidity;BME280_pressure;Samples;Min_cycle;Max_cycle;Signal;HPM_P1;HPM_P2
2022/02/26 00:00:41;;;;;;;19.47;4.27;;;3.20;99.80;;;;;;5053178;28;20461;-79
2022/02/26 00:03:07;;;;;;;14.10;4.63;;;3.20;99.90;;;;;;5053139;28;20025;-77
2022/02/26 00:05:33;;;;;;;15.53;3.93;;;3.10;99.90;;;;;;5035505;28;20095;-78
2022/02/26 00:07:59;;;;;;;16.83;3.83;;;3.10;99.90;;;;;;5032962;28;20084;-78
2022/02/26 00:10:25;;;;;;;17.00;3.73;;;3.20;99.90;;;;;;5016643;28;20021;-78
2022/02/26 00:12:52;;;;;;;17.43;2.90;;;3.00;99.90;;;;;;5016921;28;20448;-79
2022/02/26 00:15:19;;;;;;;12.70;3.50;;;3.10;99.90;;;;;;5016595;28;20074;-79
2022/02/26 00:17:45;;;;;;;18.70;3.67;;;3.10;99.90;;;;;;5016498;28;20026;-79
2022/02/26 00:20:11;;;;;;;16.53;3.37;;;3.00;99.90;;;;;;5037313;28;20059;-79
2022/02/26 00:22:37;;;;;;;15.87;2.97;;;3.00;99.90;;;;;;5052725;28;20021;-80
2022/02/26 00:25:03;;;;;;;18.60;3.37;;;3.00;99.90;;;;;;5051667;28;20025;-79
2022/02/26 00:27:29;;;;;;;17.03;3.93;;;3.00;99.90;;;;;;5019894;28;20032;-78
2022/02/26 00:29:55;;;;;;;14.43;4.63;;;3.00;99.90;;;;;;5036036;28;20501;-79
2022/02/26 00:32:20;;;;;;;20.63;3.37;;;3.00;99.90;;;;;;5019838;28;20025;-78
2022/02/26 00:34:46;;;;;;;19.40;3.83;;;3.10;99.90;;;;;;5045884;28;20111;-78
2022/02/26 00:37:12;;;;;;;16.50;3.80;;;2.90;99.90;;;;;;5032481;28;20459;-78
2022/02/26 00:39:37;;;;;;;17.87;3.90;;;3.00;99.90;;;;;;5049264;28;20033;-78
2022/02/26 00:42:04;;;;;;;13.20;3.00;;;2.90;99.90;;;;;;5033709;28;20032;-78
2022/02/26 00:44:29;;;;;;;12.20;2.97;;;2.90;99.90;;;;;;5049121;28;20029;-78
2022/02/26 00:46:55;;;;;;;20.00;3.47;;;2.80;99.90;;;;;;5032492;28;20072;-78
2022/02/26 00:52:05;;;;;;;21.65;3.67;;;2.80;99.90;;;;;;5034353;28;20572;-79
2022/02/26 00:54:31;;;;;;;14.50;2.77;;;2.90;99.90;;;;;;5032329;28;20038;-79
2022/02/26 00:56:56;;;;;;;18.97;3.27;;;2.80;99.90;;;;;;5015970;28;20040;-79
2022/02/26 00:59:22;;;;;;;20.20;3.73;;;2.80;99.90;;;;;;5032329;28;20045;-78
2022/02/26 01:01:48;;;;;;;19.80;4.17;;;2.80;99.90;;;;;;5032402;28;20033;-78
2022/02/26 01:04:14;;;;;;;10.90;2.97;;;2.70;99.90;;;;;;5015878;28;20485;-79
2022/02/26 01:06:39;;;;;;;14.33;3.37;;;2.70;99.90;;;;;;5015857;28;20063;-79
2022/02/26 01:09:05;;;;;;;19.23;4.53;;;2.80;99.90;;;;;;5032524;28;20061;-79
2022/02/26 01:11:32;;;;;;;12.80;3.13;;;2.80;99.90;;;;;;5015833;28;20045;-79
2022/02/26 01:14:00;;;;;;;16.33;3.40;;;2.80;99.90;;;;;;5032079;28;20061;-79
2022/02/26 01:16:26;;;;;;;18.13;3.93;;;2.80;99.90;;;;;;5015924;28;20033;-79
2022/02/26 01:18:52;;;;;;;20.27;3.70;;;2.80;99.90;;;;;;5015660;28;20573;-79
2022/02/26 01:21:18;;;;;;;14.27;2.90;;;2.70;99.90;;;;;;5032292;28;20029;-78
2022/02/26 01:23:44;;;;;;;13.33;3.30;;;2.70;99.90;;;;;;5032199;28;20105;-79
2022/02/26 01:26:10;;;;;;;15.60;3.30;;;2.70;99.90;;;;;;5015561;28;20124;-78
2022/02/26 01:28:36;;;;;;;30.97;3.70;;;2.70;99.90;;;;;;5031994;28;20060;-78
2022/02/26 01:31:02;;;;;;;13.70;2.77;;;2.70;99.90;;;;;;5015912;28;20029;-78
2022/02/26 01:33:27;;;;;;;17.37;3.77;;;2.70;99.90;;;;;;5016009;28;20022;-78
2022/02/26 01:35:53;;;;;;;14.80;3.07;;;2.60;99.90;;;;;;5031832;28;20029;-78
2022/02/26 01:38:19;;;;;;;13.67;3.37;;;2.60;99.90;;;;;;5031699;28;20041;-78
2022/02/26 01:40:45;;;;;;;12.63;3.23;;;2.60;99.90;;;;;;5015512;28;20026;-79
2022/02/26 01:43:11;;;;;;;12.20;3.37;;;2.60;99.90;;;;;;5015464;28;20022;-78
2022/02/26 01:45:37;;;;;;;16.30;3.33;;;2.60;99.90;;;;;;5032098;28;20091;-78
2022/02/26 01:48:02;;;;;;;16.80;3.17;;;2.60;99.90;;;;;;5015331;28;20037;-78
2022/02/26 01:50:29;;;;;;;22.70;4.00;;;2.60;99.90;;;;;;5016003;28;20025;-78
2022/02/26 01:52:58;;;;;;;15.90;3.17;;;2.50;99.90;;;;;;5019368;28;20026;-78
2022/02/26 01:55:25;;;;;;;15.10;3.90;;;2.50;99.90;;;;;;5035604;28;20469;-79
2022/02/26 01:57:51;;;;;;;21.77;4.20;;;2.50;99.90;;;;;;5019528;28;20029;-78
2022/02/26 02:00:17;;;;;;;11.37;3.00;;;2.40;99.90;;;;;;5035610;28;20044;-78
2022/02/26 02:02:43;;;;;;;12.97;3.37;;;2.40;99.90;;;;;;5019666;28;20030;-77
2022/02/26 02:05:09;;;;;;;15.47;3.40;;;2.40;99.90;;;;;;5035717;28;20037;-77
2022/02/26 02:07:35;;;;;;;13.90;3.50;;;2.30;99.90;;;;;;5019059;28;20440;-77
2022/02/26 02:10:01;;;;;;;14.27;3.27;;;2.30;99.90;;;;;;5018952;28;20030;-77
2022/02/26 02:12:27;;;;;;;14.83;3.53;;;2.30;99.90;;;;;;5035293;28;20075;-77
2022/02/26 02:14:53;;;;;;;13.27;3.60;;;2.20;99.90;;;;;;5035594;28;20545;-77
2022/02/26 02:17:21;;;;;;;17.97;3.57;;;2.20;99.90;;;;;;5018643;28;20120;-79
2022/02/26 02:19:47;;;;;;;19.53;4.10;;;2.20;99.90;;;;;;5035224;28;20025;-77
2022/02/26 02:22:16;;;;;;;11.00;3.97;;;2.10;99.90;;;;;;5035269;28;20038;-78
2022/02/26 02:24:42;;;;;;;17.60;3.60;;;2.10;99.90;;;;;;5036444;28;20858;-77
2022/02/26 02:27:09;;;;;;;12.47;3.30;;;2.10;99.90;;;;;;5020095;28;20111;-79
2022/02/26 02:29:34;;;;;;;13.67;3.00;;;2.10;99.90;;;;;;5018647;28;20041;-79
2022/02/26 02:32:00;;;;;;;13.83;3.40;;;2.10;99.90;;;;;;5019004;28;20075;-79
2022/02/26 02:34:26;;;;;;;9.57;2.90;;;2.00;99.90;;;;;;5036096;28;20037;-79
2022/02/26 02:36:52;;;;;;;13.43;3.30;;;2.10;99.90;;;;;;5037105;28;20032;-78
2022/02/26 02:39:18;;;;;;;14.07;3.43;;;2.00;99.90;;;;;;5054664;28;20496;-78
2022/02/26 02:41:44;;;;;;;9.80;2.73;;;2.00;99.90;;;;;;5021522;28;20465;-79
2022/02/26 02:44:13;;;;;;;12.70;3.43;;;1.90;99.90;;;;;;5055799;28;20462;-78
2022/02/26 02:46:40;;;;;;;25.03;4.90;;;1.90;99.90;;;;;;5038353;28;20500;-78
2022/02/26 02:49:05;;;;;;;22.57;3.63;;;1.90;99.90;;;;;;5054911;28;20033;-78
2022/02/26 02:51:31;;;;;;;11.40;3.70;;;1.90;99.90;;;;;;5021511;28;20029;-78
2022/02/26 02:53:57;;;;;;;13.17;4.33;;;1.90;99.90;;;;;;5021279;28;20060;-78
2022/02/26 02:56:22;;;;;;;16.77;3.83;;;1.90;99.90;;;;;;5037775;28;20044;-78
2022/02/26 02:58:48;;;;;;;12.93;3.90;;;1.80;99.90;;;;;;5054430;28;20029;-78
2022/02/26 03:01:14;;;;;;;11.63;4.07;;;1.80;99.90;;;;;;5021261;28;20029;-77
2022/02/26 03:03:39;;;;;;;18.40;4.53;;;1.80;99.90;;;;;;5054438;28;20083;-77
2022/02/26 03:06:06;;;;;;;19.23;4.20;;;1.80;99.90;;;;;;5037653;28;20033;-77
2022/02/26 03:08:32;;;;;;;13.87;4.30;;;1.80;99.90;;;;;;5034402;28;20037;-77
2022/02/26 03:10:58;;;;;;;19.73;6.43;;;1.70;99.90;;;;;;5054169;28;20029;-77
2022/02/26 03:13:26;;;;;;;11.83;4.47;;;1.80;99.90;;;;;;5054168;28;20480;-77
2022/02/26 03:15:53;;;;;;;18.43;5.00;;;1.70;99.90;;;;;;5038012;28;20059;-77
2022/02/26 03:18:19;;;;;;;13.40;5.37;;;1.70;99.90;;;;;;5037442;28;20032;-77
2022/02/26 03:20:45;;;;;;;14.80;4.53;;;1.70;99.90;;;;;;5053854;28;20048;-77
2022/02/26 03:23:11;;;;;;;18.30;4.97;;;1.70;99.90;;;;;;5054042;28;20057;-79
2022/02/26 03:25:38;;;;;;;13.90;4.70;;;1.60;99.90;;;;;;5034504;28;20033;-79
2022/02/26 03:28:04;;;;;;;13.47;4.70;;;1.50;99.90;;;;;;5035032;28;20108;-78
2022/02/26 03:30:29;;;;;;;12.73;5.37;;;1.50;99.90;;;;;;5017921;28;20033;-79
2022/02/26 03:32:55;;;;;;;14.03;4.27;;;1.50;99.90;;;;;;5035029;28;20029;-78
2022/02/26 03:35:21;;;;;;;21.20;6.60;;;1.50;99.90;;;;;;5017599;28;20030;-77
2022/02/26 03:37:46;;;;;;;18.90;4.83;;;1.40;99.90;;;;;;5017049;28;20049;-77
2022/02/26 03:40:13;;;;;;;13.17;4.40;;;1.30;99.90;;;;;;5017263;28;20128;-78
2022/02/26 03:42:39;;;;;;;11.80;4.60;;;1.40;99.90;;;;;;5033686;28;20025;-78
2022/02/26 03:45:07;;;;;;;17.13;5.33;;;1.40;99.90;;;;;;5017095;28;20375;-78
2022/02/26 03:47:32;;;;;;;21.77;4.47;;;1.40;99.90;;;;;;5033512;28;20116;-78
2022/02/26 03:49:59;;;;;;;23.17;4.57;;;1.40;99.90;;;;;;5016993;28;20064;-79
2022/02/26 03:52:24;;;;;;;23.97;4.40;;;1.30;99.90;;;;;;5017037;28;20033;-79
2022/02/26 03:54:50;;;;;;;13.17;3.83;;;1.30;99.90;;;;;;5033377;28;20041;-78
2022/02/26 03:57:16;;;;;;;29.63;4.90;;;1.20;99.90;;;;;;5033320;28;20025;-77
2022/02/26 03:59:42;;;;;;;26.93;4.90;;;1.20;99.90;;;;;;5016844;28;20026;-77
2022/02/26 04:02:07;;;;;;;51.77;4.60;;;1.10;99.90;;;;;;5033513;28;20121;-78
2022/02/26 04:04:35;;;;;;;33.67;5.00;;;1.10;99.90;;;;;;5016820;28;20037;-79
2022/02/26 04:07:00;;;;;;;12.83;3.77;;;1.00;99.90;;;;;;5034478;28;20037;-77
2022/02/26 04:09:26;;;;;;;38.93;6.50;;;1.00;99.90;;;;;;5036978;28;20444;-77
2022/02/26 04:11:52;;;;;;;22.07;4.60;;;1.00;99.90;;;;;;5054272;28;20049;-78
2022/02/26 04:14:17;;;;;;;28.83;6.67;;;0.90;99.90;;;;;;5019418;28;20028;-77
2022/02/26 04:16:43;;;;;;;14.47;6.17;;;0.90;99.90;;;;;;5019840;28;20070;-77
2022/02/26 04:19:09;;;;;;;15.93;5.47;;;0.90;99.90;;;;;;5019970;28;20036;-78
2022/02/26 04:21:35;;;;;;;21.87;5.90;;;0.90;99.90;;;;;;5036470;28;20029;-77
2022/02/26 04:24:00;;;;;;;21.00;6.63;;;0.90;99.90;;;;;;5036141;28;20485;-78
2022/02/26 04:26:26;;;;;;;19.67;5.97;;;1.00;99.90;;;;;;5052965;28;20025;-79
2022/02/26 04:28:54;;;;;;;14.33;6.73;;;0.90;99.90;;;;;;5019677;28;20025;-79
2022/02/26 04:31:20;;;;;;;20.77;6.37;;;0.90;99.90;;;;;;5053218;28;20021;-79
2022/02/26 04:33:47;;;;;;;13.23;5.83;;;0.90;99.90;;;;;;5053392;28;20056;-78
2022/02/26 04:36:13;;;;;;;16.23;6.10;;;1.00;99.90;;;;;;5053970;28;20086;-78
2022/02/26 04:38:39;;;;;;;26.83;6.37;;;0.90;99.90;;;;;;5052441;28;20036;-78
2022/02/26 04:41:06;;;;;;;19.70;5.30;;;0.90;99.90;;;;;;5052912;28;20454;-77
2022/02/26 04:43:33;;;;;;;18.03;6.03;;;1.00;99.90;;;;;;5052425;28;20365;-77
2022/02/26 04:45:59;;;;;;;11.67;5.70;;;1.00;99.90;;;;;;5036053;28;20431;-79
2022/02/26 04:48:25;;;;;;;17.40;5.77;;;1.00;99.90;;;;;;5035840;28;20079;-79
2022/02/26 04:50:51;;;;;;;18.33;6.40;;;1.10;99.90;;;;;;5052357;28;20039;-77
2022/02/26 04:53:16;;;;;;;22.10;6.83;;;1.00;99.90;;;;;;5035787;28;20087;-78
2022/02/26 04:55:42;;;;;;;18.63;6.13;;;1.10;99.90;;;;;;5035605;28;20037;-77
2022/02/26 04:58:08;;;;;;;33.17;5.30;;;1.10;99.90;;;;;;5019283;28;20029;-79
2022/02/26 05:00:35;;;;;;;23.70;4.97;;;1.10;99.90;;;;;;5053566;28;20025;-77
2022/02/26 05:03:01;;;;;;;32.00;5.97;;;1.20;99.90;;;;;;5035774;28;20021;-79
2022/02/26 05:05:27;;;;;;;26.23;5.30;;;1.20;99.90;;;;;;5052133;28;20107;-78
2022/02/26 05:07:52;;;;;;;30.37;5.30;;;1.30;99.90;;;;;;5035555;28;20461;-78
2022/02/26 05:10:18;;;;;;;28.43;5.50;;;1.20;99.90;;;;;;5026113;28;20029;-78
2022/02/26 05:12:44;;;;;;;22.40;5.83;;;1.30;99.90;;;;;;5032134;28;20083;-79
2022/02/26 05:15:10;;;;;;;29.07;5.63;;;1.30;99.90;;;;;;5015438;28;20033;-78
2022/02/26 05:17:40;;;;;;;25.60;4.97;;;1.30;99.90;;;;;;5009798;28;20498;-78
2022/02/26 05:20:07;;;;;;;34.80;5.77;;;1.30;99.90;;;;;;5015855;28;20034;-79
2022/02/26 05:22:35;;;;;;;26.03;5.43;;;1.30;99.90;;;;;;5016585;28;20505;-77
2022/02/26 05:25:10;;;;;;;20.37;5.87;;;1.40;99.90;;;;;;5034739;28;20431;-78
2022/02/26 05:27:36;;;;;;;20.60;6.03;;;1.40;99.90;;;;;;5051892;28;20040;-79
2022/02/26 05:30:02;;;;;;;19.77;6.17;;;1.40;99.90;;;;;;5036052;28;20026;-78
2022/02/26 05:32:27;;;;;;;43.47;6.47;;;1.40;99.90;;;;;;5035870;28;20030;-78
2022/02/26 05:34:53;;;;;;;34.70;7.33;;;1.40;99.90;;;;;;5019496;28;20128;-78
2022/02/26 05:37:20;;;;;;;27.60;6.63;;;1.50;99.90;;;;;;5003080;28;20050;-78
2022/02/26 05:39:46;;;;;;;23.23;5.47;;;1.40;99.90;;;;;;5037339;28;20025;-79
2022/02/26 05:42:11;;;;;;;16.93;5.47;;;1.40;99.90;;;;;;5019947;28;20017;-78
2022/02/26 05:44:37;;;;;;;22.40;5.97;;;1.40;99.90;;;;;;5019449;28;20521;-79
2022/02/26 05:47:03;;;;;;;27.77;6.87;;;1.50;99.90;;;;;;5033567;28;20037;-77
2022/02/26 05:49:29;;;;;;;55.57;6.80;;;1.50;99.90;;;;;;5039460;28;20029;-78
2022/02/26 05:51:54;;;;;;;29.17;6.67;;;1.60;99.90;;;;;;5022594;28;20130;-78
2022/02/26 05:54:20;;;;;;;34.07;6.20;;;1.50;99.90;;;;;;5038958;28;20029;-78
2022/02/26 05:56:46;;;;;;;58.20;7.47;;;1.60;99.90;;;;;;5039420;28;20033;-79
2022/02/26 05:59:11;;;;;;;31.80;7.03;;;1.40;99.90;;;;;;5038995;28;20079;-77
2022/02/26 06:01:37;;;;;;;44.33;7.30;;;1.50;99.90;;;;;;5038758;28;20029;-78
2022/02/26 06:04:03;;;;;;;34.87;7.73;;;1.50;99.90;;;;;;5022323;28;20115;-77
2022/02/26 06:06:28;;;;;;;29.17;7.37;;;1.50;99.90;;;;;;5038826;28;20531;-77
2022/02/26 06:08:54;;;;;;;45.73;8.33;;;1.50;99.90;;;;;;5041540;28;20037;-77
2022/02/26 06:11:20;;;;;;;30.50;7.17;;;1.50;99.90;;;;;;5035369;28;20109;-78
2022/02/26 06:13:46;;;;;;;32.57;8.23;;;1.50;99.90;;;;;;5045568;28;20047;-78
2022/02/26 06:16:13;;;;;;;24.03;7.00;;;1.50;99.90;;;;;;5054929;28;20022;-77
2022/02/26 06:18:39;;;;;;;30.53;7.73;;;1.50;99.90;;;;;;5039030;28;20036;-79
2022/02/26 06:21:04;;;;;;;25.53;7.90;;;1.50;99.90;;;;;;5055185;28;20389;-79
2022/02/26 06:23:30;;;;;;;48.03;8.57;;;1.60;99.90;;;;;;5038317;28;20049;-79
2022/02/26 06:25:55;;;;;;;24.33;7.90;;;1.60;99.90;;;;;;5037546;28;20029;-79
2022/02/26 06:28:21;;;;;;;24.00;8.20;;;1.60;99.90;;;;;;5037443;28;20552;-79
2022/02/26 06:30:47;;;;;;;23.43;7.87;;;1.60;99.90;;;;;;5037013;28;20025;-78
2022/02/26 06:33:14;;;;;;;28.23;8.80;;;1.60;99.90;;;;;;5020131;28;20057;-79
2022/02/26 06:35:44;;;;;;;38.30;9.73;;;1.60;99.90;;;;;;5054742;28;20107;-78
2022/02/26 06:38:10;;;;;;;29.07;9.80;;;1.70;99.90;;;;;;5054074;28;20043;-78
2022/02/26 06:40:36;;;;;;;69.43;11.47;;;1.70;99.90;;;;;;5038456;28;20036;-78
2022/02/26 06:43:02;;;;;;;26.37;9.87;;;1.70;99.90;;;;;;5038454;28;20043;-77
2022/02/26 06:45:28;;;;;;;35.67;10.33;;;1.70;99.90;;;;;;5038125;28;20480;-78
2022/02/26 06:47:53;;;;;;;30.80;10.03;;;1.70;99.90;;;;;;5038002;28;20029;-79
2022/02/26 06:50:19;;;;;;;34.63;9.67;;;1.70;99.90;;;;;;5038000;28;20067;-79
2022/02/26 06:52:45;;;;;;;21.80;8.53;;;1.70;99.90;;;;;;5037792;28;20435;-77
2022/02/26 06:55:11;;;;;;;20.47;9.40;;;1.70;99.90;;;;;;5021269;28;20033;-79
2022/02/26 06:57:36;;;;;;;22.80;9.00;;;1.70;99.90;;;;;;5054429;28;20446;-79
2022/02/26 07:00:05;;;;;;;20.77;8.13;;;1.80;99.90;;;;;;5054462;28;20025;-77
2022/02/26 07:02:31;;;;;;;28.00;8.40;;;1.80;99.90;;;;;;5035439;28;20433;-78
2022/02/26 07:04:57;;;;;;;23.70;8.47;;;1.80;99.90;;;;;;5055664;28;20029;-78
2022/02/26 07:07:22;;;;;;;20.83;8.97;;;1.80;99.90;;;;;;5054378;28;20119;-78
2022/02/26 07:09:48;;;;;;;25.90;8.40;;;1.80;99.90;;;;;;5054305;28;20033;-78
2022/02/26 07:12:16;;;;;;;22.57;9.20;;;1.80;99.90;;;;;;5021306;28;20485;-78
2022/02/26 07:14:42;;;;;;;19.57;8.53;;;1.90;99.90;;;;;;5054129;28;20036;-78
2022/02/26 07:17:08;;;;;;;16.10;8.17;;;1.90;99.90;;;;;;5054279;28;20020;-77
2022/02/26 07:19:34;;;;;;;16.87;8.40;;;1.90;99.90;;;;;;5035524;28;20114;-78
2022/02/26 07:21:59;;;;;;;23.60;9.77;;;1.90;99.90;;;;;;5033439;28;20047;-78
2022/02/26 07:24:26;;;;;;;17.50;9.57;;;2.00;99.90;;;;;;5074132;28;20424;-77
2022/02/26 07:26:52;;;;;;;23.20;9.73;;;2.00;99.90;;;;;;5074026;28;20552;-78
2022/02/26 07:29:18;;;;;;;21.87;10.17;;;2.00;99.90;;;;;;5073903;28;20154;-77
2022/02/26 07:31:43;;;;;;;36.37;10.90;;;2.00;99.90;;;;;;5040656;28;20057;-78
2022/02/26 07:34:09;;;;;;;25.77;9.27;;;2.00;99.90;;;;;;5075281;28;20025;-78
2022/02/26 07:36:34;;;;;;;22.10;9.70;;;2.00;99.90;;;;;;5037132;28;20037;-78
2022/02/26 07:39:01;;;;;;;20.70;9.43;;;2.00;99.90;;;;;;5020542;28;20051;-77
2022/02/26 07:41:27;;;;;;;29.73;10.40;;;2.10;99.90;;;;;;5054829;28;20029;-79
2022/02/26 07:43:53;;;;;;;20.33;11.10;;;2.00;99.90;;;;;;5033964;28;20055;-75
2022/02/26 07:46:18;;;;;;;30.73;10.40;;;2.00;99.90;;;;;;5054551;28;20477;-75
2022/02/26 07:48:44;;;;;;;17.17;9.90;;;2.10;99.90;;;;;;5052945;28;20033;-76
2022/02/26 07:51:09;;;;;;;25.57;10.23;;;2.10;99.90;;;;;;5036882;28;20366;-76
2022/02/26 07:53:35;;;;;;;22.10;10.00;;;2.10;99.90;;;;;;5037106;28;20064;-76
2022/02/26 07:56:01;;;;;;;19.93;9.60;;;2.20;99.90;;;;;;5054680;28;20531;-76
2022/02/26 07:58:27;;;;;;;18.10;10.50;;;2.20;99.90;;;;;;5036725;28;20025;-75
2022/02/26 08:00:53;;;;;;;23.40;10.03;;;2.30;99.90;;;;;;5051500;28;20082;-76
2022/02/26 08:03:18;;;;;;;21.67;9.97;;;2.30;99.90;;;;;;5031233;28;20120;-77
2022/02/26 08:05:44;;;;;;;20.67;10.57;;;2.40;99.90;;;;;;5033832;28;20037;-76
2022/02/26 08:08:10;;;;;;;16.93;10.27;;;2.50;99.90;;;;;;5034821;28;20038;-76
2022/02/26 08:10:35;;;;;;;19.17;9.77;;;2.50;99.90;;;;;;5053677;28;20106;-76
2022/02/26 08:13:01;;;;;;;17.20;9.13;;;2.60;99.90;;;;;;5053037;28;20028;-75
2022/02/26 08:15:28;;;;;;;14.33;9.00;;;2.70;99.90;;;;;;5036794;28;20370;-77
2022/02/26 08:17:53;;;;;;;15.97;8.80;;;2.70;99.90;;;;;;5052886;28;20396;-77
2022/02/26 08:20:23;;;;;;;13.97;9.23;;;2.80;99.90;;;;;;5054459;28;20100;-76
2022/02/26 08:22:49;;;;;;;14.93;9.07;;;2.90;99.90;;;;;;5053110;28;20075;-77
2022/02/26 08:25:14;;;;;;;16.57;8.77;;;2.90;99.90;;;;;;5054248;28;20041;-76
2022/02/26 08:27:41;;;;;;;14.40;8.20;;;3.00;99.90;;;;;;5049668;28;20037;-77
2022/02/26 08:30:10;;;;;;;12.13;8.40;;;3.10;99.90;;;;;;5033200;28;20030;-76
2022/02/26 08:32:36;;;;;;;14.37;8.47;;;3.20;99.90;;;;;;5038864;28;20044;-77
2022/02/26 08:35:02;;;;;;;16.37;9.50;;;3.20;99.90;;;;;;5036015;28;20029;-78
2022/02/26 08:37:29;;;;;;;17.67;8.47;;;3.30;99.90;;;;;;5036091;28;20081;-78
2022/02/26 08:39:55;;;;;;;13.60;8.50;;;3.40;99.90;;;;;;5035902;28;20086;-77
2022/02/26 08:42:21;;;;;;;10.03;7.73;;;3.50;99.90;;;;;;5052592;28;20021;-78
2022/02/26 08:44:47;;;;;;;12.57;8.63;;;3.50;99.90;;;;;;5050697;28;20032;-80
2022/02/26 08:47:13;;;;;;;15.20;9.03;;;3.70;99.90;;;;;;5049016;28;20107;-79
2022/02/26 08:49:39;;;;;;;12.43;8.50;;;3.70;99.90;;;;;;5016099;28;20493;-79
2022/02/26 08:52:06;;;;;;;12.53;8.73;;;3.90;99.90;;;;;;5016111;28;20170;-79
2022/02/26 08:54:32;;;;;;;14.10;8.90;;;3.90;99.90;;;;;;5032637;28;20027;-78
2022/02/26 08:56:58;;;;;;;15.50;9.03;;;4.00;99.90;;;;;;5032422;28;20433;-80
2022/02/26 08:59:23;;;;;;;14.77;9.40;;;4.20;99.90;;;;;;4999308;28;20026;-79
2022/02/26 09:01:50;;;;;;;13.67;9.73;;;4.20;99.90;;;;;;5000280;28;20049;-79
2022/02/26 09:04:16;;;;;;;16.23;10.57;;;4.40;99.90;;;;;;5032231;28;20021;-78
2022/02/26 09:06:42;;;;;;;18.80;9.50;;;4.50;99.90;;;;;;5015874;28;20036;-79
2022/02/26 09:09:08;;;;;;;15.37;8.67;;;4.50;99.90;;;;;;5015789;28;20034;-79
2022/02/26 09:11:37;;;;;;;11.87;7.97;;;4.70;99.90;;;;;;5046517;28;20025;-79
2022/02/26 09:14:04;;;;;;;11.73;7.87;;;4.70;99.90;;;;;;5015394;28;20022;-79
2022/02/26 09:16:30;;;;;;;14.07;8.80;;;4.80;99.90;;;;;;5015051;28;20037;-79
2022/02/26 09:18:55;;;;;;;13.07;7.87;;;4.80;99.90;;;;;;5031964;28;20030;-79
2022/02/26 09:21:21;;;;;;;12.30;8.37;;;5.00;99.90;;;;;;5031873;28;20021;-79
2022/02/26 09:23:47;;;;;;;15.07;8.40;;;5.10;99.90;;;;;;5031910;28;20041;-82
2022/02/26 09:26:13;;;;;;;14.77;8.53;;;5.30;99.90;;;;;;5032081;28;20457;-80
2022/02/26 09:28:40;;;;;;;12.67;9.10;;;5.20;99.90;;;;;;5033271;28;20022;-79
2022/02/26 09:31:06;;;;;;;13.70;8.90;;;5.30;99.90;;;;;;5032274;28;20044;-80
2022/02/26 09:33:32;;;;;;;13.60;9.23;;;5.40;99.90;;;;;;5015556;28;20445;-79
2022/02/26 09:36:00;;;;;;;13.23;9.57;;;5.50;99.90;;;;;;5033216;28;20061;-80
2022/02/26 09:38:27;;;;;;;15.47;10.40;;;5.60;99.90;;;;;;5031603;28;20045;-80
2022/02/26 09:40:57;;;;;;;14.63;9.47;;;5.70;99.90;;;;;;5047382;28;20492;-80
2022/02/26 09:43:25;;;;;;;16.53;9.90;;;5.70;99.90;;;;;;5032110;28;20450;-80
2022/02/26 09:45:52;;;;;;;14.70;10.60;;;5.70;99.90;;;;;;5031872;28;20382;-79
2022/02/26 09:48:18;;;;;;;15.53;10.87;;;5.80;99.90;;;;;;5010738;28;20033;-80
2022/02/26 09:50:44;;;;;;;16.57;11.03;;;5.80;99.90;;;;;;5033585;28;20029;-85
2022/02/26 09:53:11;;;;;;;16.97;11.57;;;5.90;99.90;;;;;;5045803;28;20032;-90
2022/02/26 09:55:38;;;;;;;18.77;11.73;;;5.90;99.90;;;;;;5039370;28;20420;-80
2022/02/26 09:58:04;;;;;;;17.63;11.60;;;5.90;99.90;;;;;;5045267;28;20111;-81
2022/02/26 10:00:30;;;;;;;14.10;9.93;;;6.00;99.90;;;;;;5051399;28;20040;-81
2022/02/26 10:02:56;;;;;;;20.37;11.47;;;6.10;99.90;;;;;;5034830;28;20021;-80
2022/02/26 10:05:22;;;;;;;18.73;11.47;;;6.30;99.90;;;;;;5051416;28;20025;-81
2022/02/26 10:07:50;;;;;;;18.13;10.43;;;6.60;99.90;;;;;;5051511;28;20358;-81
2022/02/26 10:10:15;;;;;;;20.30;10.00;;;6.90;99.90;;;;;;5051791;28;20057;-82
2022/02/26 10:12:41;;;;;;;14.83;8.73;;;7.30;99.90;;;;;;5035947;28;20057;-79
2022/02/26 10:15:25;;;;;;;13.00;6.93;;;7.80;99.90;;;;;;5035201;28;20047;-82
2022/02/26 10:18:03;;;;;;;13.00;5.67;;;8.50;99.90;;;;;;5035920;28;20022;-82
2022/02/26 10:20:29;;;;;;;11.18;5.18;;;9.30;99.90;;;;;;5036027;28;20477;-84
2022/02/26 10:22:56;;;;;;;10.23;4.18;;;10.10;99.90;;;;;;5018395;28;20025;-82
2022/02/26 10:25:24;;;;;;;9.70;3.38;;;11.10;99.90;;;;;;5036487;28;20096;-82
2022/02/26 10:27:53;;;;;;;9.35;4.00;;;12.00;99.90;;;;;;5038005;28;20028;-82
2022/02/26 10:30:23;;;;;;;9.15;3.70;;;12.90;99.90;;;;;;5055024;28;20040;-81
2022/02/26 10:33:20;;;;;;;10.50;3.53;;;13.80;99.90;;;;;;5055119;28;20116;-82
2022/02/26 10:35:59;;;;;;;10.45;2.08;;;14.70;99.90;;;;;;5054713;28;20029;-82
2022/02/26 10:38:35;;;;;;;8.18;1.83;;;15.50;99.90;;;;;;5054816;28;20052;-82
2022/02/26 10:41:07;;;;;;;9.77;1.80;;;16.20;99.90;;;;;;5054761;28;20021;-80
2022/02/26 10:43:49;;;;;;;12.35;2.70;;;16.90;99.90;;;;;;5035987;28;20049;-80
2022/02/26 10:46:20;;;;;;;9.07;2.08;;;17.70;98.10;;;;;;5036046;28;20061;-84
2022/02/26 10:48:47;;;;;;;9.15;2.17;;;18.30;95.80;;;;;;5034786;28;20112;-84
2022/02/26 10:51:18;;;;;;;9.20;1.92;;;18.80;94.40;;;;;;5034535;28;20366;-82
2022/02/26 10:53:45;;;;;;;8.35;2.10;;;19.40;91.20;;;;;;5034414;28;20377;-84
2022/02/26 10:56:12;;;;;;;7.85;1.35;;;19.90;88.90;;;;;;5034815;28;20026;-83
2022/02/26 10:58:40;;;;;;;8.75;2.20;;;20.40;82.50;;;;;;5028804;28;20152;-83
2022/02/26 11:01:07;;;;;;;6.78;1.80;;;20.80;77.90;;;;;;5034617;28;20029;-80
2022/02/26 11:03:35;;;;;;;8.13;2.58;;;21.10;74.30;;;;;;5034703;28;20112;-79
2022/02/26 11:06:01;;;;;;;8.77;2.13;;;21.50;71.60;;;;;;5040937;28;20330;-78
2022/02/26 11:08:28;;;;;;;8.85;2.17;;;21.80;69.00;;;;;;5053957;28;20067;-79
2022/02/26 11:10:54;;;;;;;8.30;2.17;;;22.10;67.60;;;;;;5037431;28;20366;-79
2022/02/26 11:13:21;;;;;;;8.75;2.17;;;22.40;65.60;;;;;;5004906;28;20048;-79
2022/02/26 11:15:51;;;;;;;8.18;1.60;;;22.80;63.40;;;;;;5017669;28;20043;-79
2022/02/26 11:18:19;;;;;;;8.68;2.03;;;23.10;60.70;;;;;;5047024;28;20009;-79
2022/02/26 11:20:46;;;;;;;6.78;1.52;;;23.40;57.90;;;;;;5054224;28;20063;-79
2022/02/26 11:23:12;;;;;;;11.13;2.47;;;23.50;57.20;;;;;;5052314;28;20040;-79
2022/02/26 11:25:39;;;;;;;6.10;1.77;;;23.80;55.80;;;;;;5053868;28;20028;-79
2022/02/26 11:28:11;;;;;;;8.40;1.83;;;23.90;54.50;;;;;;5055318;28;20029;-78
2022/02/26 11:30:44;;;;;;;7.45;1.75;;;23.90;52.60;;;;;;5053785;28;20025;-79
2022/02/26 11:33:10;;;;;;;9.43;1.80;;;24.00;52.00;;;;;;5053905;28;20025;-83
2022/02/26 11:35:37;;;;;;;9.27;1.73;;;23.70;51.10;;;;;;5053919;28;20040;-85
2022/02/26 11:38:08;;;;;;;7.60;1.25;;;23.10;49.70;;;;;;5053420;28;20056;-81
2022/02/26 11:40:34;;;;;;;7.63;1.00;;;22.30;48.30;;;;;;5033557;28;20041;-80
2022/02/26 11:43:01;;;;;;;7.35;1.30;;;21.80;49.30;;;;;;5033609;28;20545;-81
2022/02/26 11:45:26;;;;;;;7.30;1.50;;;21.90;49.50;;;;;;5017314;28;20029;-81
2022/02/26 11:47:54;;;;;;;7.18;1.38;;;21.80;48.00;;;;;;5033351;28;20075;-83
2022/02/26 11:50:37;;;;;;;7.05;1.10;;;21.30;47.70;;;;;;5034553;28;20056;-82
2022/02/26 11:53:23;;;;;;;7.65;1.13;;;21.00;48.20;;;;;;5033159;28;20030;-83
2022/02/26 11:55:49;;;;;;;6.50;0.98;;;20.90;48.10;;;;;;5049699;28;20110;-83
2022/02/26 11:58:17;;;;;;;9.27;1.65;;;20.80;48.70;;;;;;5053156;28;20456;-82
2022/02/26 12:00:49;;;;;;;9.55;1.60;;;21.10;49.10;;;;;;5053164;28;20016;-82
2022/02/26 12:03:15;;;;;;;9.02;1.50;;;21.60;49.50;;;;;;5054668;28;20021;-82
2022/02/26 12:05:42;;;;;;;5.20;1.20;;;22.00;49.40;;;;;;5053219;28;20103;-82
2022/02/26 12:08:09;;;;;;;11.13;1.60;;;22.50;49.40;;;;;;5053136;28;20013;-82
2022/02/26 12:10:34;;;;;;;8.63;1.85;;;22.90;48.40;;;;;;5036459;28;20037;-82
2022/02/26 12:13:00;;;;;;;10.23;1.85;;;23.20;46.70;;;;;;5033420;28;20395;-82
2022/02/26 12:15:31;;;;;;;7.53;1.40;;;23.10;44.70;;;;;;5036852;28;21666;-81
2022/02/26 12:18:05;;;;;;;9.00;1.30;;;23.20;45.60;;;;;;5037007;28;20036;-82
2022/02/26 12:20:32;;;;;;;7.43;1.10;;;23.50;44.30;;;;;;5033073;28;20018;-82
2022/02/26 12:23:13;;;;;;;6.90;1.40;;;23.90;44.60;;;;;;5033015;28;20026;-82
2022/02/26 12:25:43;;;;;;;7.82;1.20;;;24.10;42.80;;;;;;5033327;28;20057;-83
2022/02/26 12:28:11;;;;;;;5.72;1.20;;;23.80;42.10;;;;;;5033118;28;20045;-83
2022/02/26 12:31:04;;;;;;;6.70;1.17;;;23.10;41.90;;;;;;5033023;28;20469;-81
2022/02/26 12:33:43;;;;;;;6.57;1.52;;;22.30;41.30;;;;;;5033184;28;20048;-81
2022/02/26 12:36:14;;;;;;;10.18;1.23;;;21.60;41.20;;;;;;5033408;28;20034;-81
2022/02/26 12:39:09;;;;;;;8.63;1.10;;;21.20;42.70;;;;;;5048678;28;20056;-79
2022/02/26 12:41:37;;;;;;;9.55;1.50;;;20.80;43.20;;;;;;5053215;28;20402;-79
2022/02/26 12:44:04;;;;;;;7.53;1.27;;;21.20;44.30;;;;;;5036294;28;20496;-79
2022/02/26 12:46:32;;;;;;;8.48;1.38;;;21.70;44.50;;;;;;5052518;28;20021;-80